SARE/RES METAR and TAF weather

Enter ICAO airport designator
Station Type Date Time Source
SARE METAR 2019/08/24 17:00 UTC NOAA

SARE 241700Z 09008KT CAVOK 26/09 Q1018


Station Type Date Time Source
SARE Decoded METAR 2019/08/24 17:00 UTC NOAA

Station name not available
Aug 24, 2019 - 01:00 PM EDT / 2019.08.24 1700 UTC
Wind: from the E (090 degrees) at 9 MPH (8 KT):0
Visibility: greater than 7 mile(s):0
Temperature: 78 F (26 C)
Dew Point: 48 F (9 C)
Relative Humidity: 34%
Pressure (altimeter): 30.06 in. Hg (1018 hPa)
ob: SARE 241700Z 09008KT CAVOK 26/09 Q1018
cycle: 17

Station Type Date Time Source
SARE TAF 2019/08/24 18:09 UTC NOAA

TAF SARE 241700Z 2418/2518 09005KT 6000 NSC TX27/2419Z TN16/2510Z
BECMG 2419/2421 05010KT 5000 HZ NSC
BECMG 2508/2511 4000 TSRA OVC025 FEW055CB

Example: see airport list